Time;durP1;ratioP1;P1;durP2;ratioP2;P2;SDS_P1;SDS_P2;PMS_P1;PMS_P2;Temp;Humidity;BMP_temperature;BMP_pressure;BME280_temperature;BME280_humidity;BME280_pressure;Samples;Min_cycle;Max_cycle;Signal;HPM_P1;HPM_P2
2023/10/16 00:01:04;;;;;;;5.82;1.02;;;8.90;90.70;;;;;;4978946;28;20050;-84
2023/10/16 00:03:31;;;;;;;6.50;1.00;;;8.80;91.00;;;;;;4963410;28;20046;-84
2023/10/16 00:05:56;;;;;;;3.55;0.93;;;8.90;90.90;;;;;;4962979;28;20405;-84
2023/10/16 00:08:23;;;;;;;4.22;0.80;;;8.80;90.90;;;;;;4930900;28;20042;-85
2023/10/16 00:11:01;;;;;;;2.83;0.73;;;8.80;90.80;;;;;;4962933;28;20442;-84
2023/10/16 00:13:27;;;;;;;2.08;0.70;;;8.70;90.90;;;;;;4978621;28;20491;-84
2023/10/16 00:15:58;;;;;;;4.60;1.30;;;8.70;90.90;;;;;;4962898;28;20048;-84
2023/10/16 00:18:25;;;;;;;5.90;0.88;;;8.60;91.00;;;;;;4978595;28;20047;-84
2023/10/16 00:20:52;;;;;;;2.67;0.60;;;8.60;91.10;;;;;;4962433;28;20042;-84
2023/10/16 00:23:25;;;;;;;9.80;1.20;;;8.60;91.10;;;;;;4962196;28;20092;-86
2023/10/16 00:25:53;;;;;;;3.53;0.63;;;8.70;91.20;;;;;;4963198;28;20546;-87
2023/10/16 00:28:30;;;;;;;7.40;0.98;;;8.70;91.00;;;;;;4962239;28;20042;-87
2023/10/16 00:30:59;;;;;;;4.43;0.93;;;8.80;91.10;;;;;;4980288;28;20346;-86
2023/10/16 00:33:27;;;;;;;2.45;1.05;;;8.80;91.10;;;;;;4979107;28;20075;-86
2023/10/16 00:35:53;;;;;;;7.25;0.80;;;8.80;91.20;;;;;;4962590;28;20057;-85
2023/10/16 00:38:19;;;;;;;2.40;0.75;;;8.80;91.10;;;;;;4962195;28;20043;-86
2023/10/16 00:43:34;;;;;;;2.60;0.68;;;8.90;91.30;;;;;;4969831;28;20042;-87
2023/10/16 00:46:06;;;;;;;4.35;0.60;;;8.90;91.30;;;;;;4980560;28;20054;-85
2023/10/16 00:48:39;;;;;;;4.32;1.10;;;8.90;91.40;;;;;;4985435;28;20061;-86
2023/10/16 00:51:07;;;;;;;4.20;1.10;;;8.90;91.50;;;;;;4985724;28;20057;-85
2023/10/16 00:53:35;;;;;;;4.50;0.70;;;8.80;91.80;;;;;;4983660;28;20042;-85
2023/10/16 00:56:07;;;;;;;4.47;0.98;;;8.80;91.80;;;;;;4978356;28;20055;-85
2023/10/16 00:58:36;;;;;;;6.15;1.30;;;8.80;91.90;;;;;;4972377;28;20036;-85
2023/10/16 01:01:09;;;;;;;3.95;1.20;;;8.80;91.90;;;;;;4972216;28;20053;-84
2023/10/16 01:03:44;;;;;;;6.05;1.30;;;8.80;92.00;;;;;;4988233;28;20058;-84
2023/10/16 01:06:26;;;;;;;4.40;1.00;;;8.80;92.00;;;;;;5003788;28;20053;-84
2023/10/16 01:08:52;;;;;;;4.65;1.00;;;8.70;92.20;;;;;;4985382;28;20403;-84
2023/10/16 01:11:19;;;;;;;8.70;1.33;;;8.70;92.10;;;;;;4970124;28;20023;-84
2023/10/16 01:13:48;;;;;;;5.75;1.05;;;8.60;92.30;;;;;;4968748;28;20026;-84
2023/10/16 01:16:17;;;;;;;8.32;1.50;;;8.70;92.20;;;;;;4929732;28;20070;-84
2023/10/16 01:18:45;;;;;;;4.75;0.90;;;8.60;92.40;;;;;;4961520;28;20053;-83
2023/10/16 01:21:14;;;;;;;4.43;0.90;;;8.60;92.40;;;;;;4977862;28;20046;-84
2023/10/16 01:23:43;;;;;;;6.50;1.10;;;8.60;92.70;;;;;;4977359;28;20125;-84
2023/10/16 01:26:10;;;;;;;7.18;1.45;;;8.50;92.60;;;;;;4977219;28;20100;-83
2023/10/16 01:28:36;;;;;;;7.45;1.40;;;8.40;92.90;;;;;;4961168;28;20093;-84
2023/10/16 01:31:04;;;;;;;3.30;1.20;;;8.40;92.90;;;;;;4961210;28;20042;-84
2023/10/16 01:33:30;;;;;;;2.40;0.65;;;8.40;92.70;;;;;;4961853;28;20057;-84
2023/10/16 01:35:56;;;;;;;3.90;0.70;;;8.40;92.70;;;;;;4944836;28;20038;-84
2023/10/16 01:38:24;;;;;;;3.97;1.10;;;8.40;92.90;;;;;;4977184;28;20047;-84
2023/10/16 01:41:15;;;;;;;5.53;0.80;;;8.40;92.80;;;;;;4930240;28;20093;-84
2023/10/16 01:43:43;;;;;;;3.05;0.85;;;8.40;92.80;;;;;;4977038;28;20046;-84
2023/10/16 01:46:13;;;;;;;6.18;1.00;;;8.30;92.80;;;;;;4961260;28;20054;-84
2023/10/16 01:48:49;;;;;;;4.43;1.00;;;8.30;92.90;;;;;;4961161;28;20050;-84
2023/10/16 01:51:22;;;;;;;4.68;0.85;;;8.30;92.90;;;;;;4945469;28;20046;-84
2023/10/16 01:53:55;;;;;;;4.53;1.00;;;8.30;92.90;;;;;;4977595;28;20438;-84
2023/10/16 01:56:23;;;;;;;4.20;0.80;;;8.20;92.90;;;;;;4977436;28;20112;-84
2023/10/16 01:58:52;;;;;;;6.82;1.58;;;8.20;92.90;;;;;;4960673;28;20038;-84
2023/10/16 02:01:21;;;;;;;2.88;0.70;;;8.20;92.80;;;;;;4961746;28;20054;-84
2023/10/16 02:03:58;;;;;;;2.10;0.80;;;8.10;93.20;;;;;;4976954;28;20096;-84
2023/10/16 02:06:38;;;;;;;3.47;0.93;;;8.10;93.40;;;;;;4976974;28;20034;-85
2023/10/16 02:09:13;;;;;;;2.83;0.70;;;8.10;93.40;;;;;;4961009;28;20054;-84
2023/10/16 02:11:40;;;;;;;4.38;0.98;;;8.10;93.50;;;;;;4946475;28;20502;-84
2023/10/16 02:14:07;;;;;;;8.50;1.02;;;8.10;93.50;;;;;;4977026;28;20064;-84
2023/10/16 02:16:32;;;;;;;2.25;0.70;;;8.20;93.40;;;;;;4961067;28;20042;-83
2023/10/16 02:19:00;;;;;;;2.58;0.70;;;8.20;93.30;;;;;;4960945;28;20089;-85
2023/10/16 02:21:26;;;;;;;5.82;0.98;;;8.20;93.50;;;;;;4944690;28;20042;-85
2023/10/16 02:23:51;;;;;;;5.35;0.85;;;8.30;93.60;;;;;;4932585;28;20041;-85
2023/10/16 02:26:18;;;;;;;3.65;0.73;;;8.30;93.40;;;;;;4960353;28;20042;-84
2023/10/16 02:28:46;;;;;;;4.35;0.93;;;8.30;93.30;;;;;;4944705;28;20042;-84
2023/10/16 02:31:19;;;;;;;4.05;0.80;;;8.20;93.30;;;;;;4960478;28;20081;-84
2023/10/16 02:33:50;;;;;;;6.18;1.15;;;8.30;93.30;;;;;;4976676;28;20418;-84
2023/10/16 02:36:18;;;;;;;5.80;1.15;;;8.30;93.20;;;;;;4976282;28;20047;-85
2023/10/16 02:38:44;;;;;;;2.92;0.75;;;8.30;93.10;;;;;;4960305;28;20161;-85
2023/10/16 02:41:10;;;;;;;3.25;1.00;;;8.40;93.10;;;;;;4961129;28;20039;-85
2023/10/16 02:43:41;;;;;;;5.30;1.15;;;8.40;93.20;;;;;;4960812;28;20034;-84
2023/10/16 02:46:11;;;;;;;5.38;1.00;;;8.40;93.10;;;;;;4958949;28;20380;-86
2023/10/16 02:48:41;;;;;;;4.53;0.98;;;8.50;93.20;;;;;;4980546;28;20057;-86
2023/10/16 02:51:07;;;;;;;4.35;0.88;;;8.50;93.20;;;;;;4980611;28;20046;-86
2023/10/16 02:53:36;;;;;;;5.05;0.95;;;8.50;93.30;;;;;;4964339;28;20046;-87
2023/10/16 02:56:14;;;;;;;3.25;1.05;;;8.50;93.20;;;;;;4980838;28;20500;-84
2023/10/16 02:58:46;;;;;;;6.93;1.20;;;8.50;93.30;;;;;;4980303;28;20050;-87
2023/10/16 03:01:18;;;;;;;5.47;1.27;;;8.50;93.20;;;;;;4980837;28;20045;-86
2023/10/16 03:03:53;;;;;;;4.07;1.17;;;8.60;93.20;;;;;;4980835;28;20498;-85
2023/10/16 03:06:19;;;;;;;6.10;1.20;;;8.60;93.30;;;;;;4964734;28;20085;-84
2023/10/16 03:08:51;;;;;;;4.93;1.30;;;8.60;93.30;;;;;;4932569;28;20467;-85
2023/10/16 03:11:18;;;;;;;4.55;1.05;;;8.70;93.30;;;;;;4965601;28;20046;-84
2023/10/16 03:13:47;;;;;;;1.85;0.80;;;8.70;93.30;;;;;;4963589;28;20085;-85
2023/10/16 03:16:17;;;;;;;3.17;0.93;;;8.70;93.30;;;;;;4982488;28;20438;-83
2023/10/16 03:18:44;;;;;;;8.63;1.00;;;8.80;93.30;;;;;;4980169;28;20042;-85
2023/10/16 03:23:43;;;;;;;7.43;1.20;;;8.80;93.30;;;;;;4980730;28;20047;-84
2023/10/16 03:26:18;;;;;;;4.93;1.30;;;8.80;93.30;;;;;;4964470;28;20042;-84
2023/10/16 03:28:44;;;;;;;5.05;1.40;;;8.80;93.30;;;;;;4950041;28;20394;-84
2023/10/16 03:31:11;;;;;;;3.30;0.80;;;8.80;93.30;;;;;;4931708;28;20042;-85
2023/10/16 03:33:38;;;;;;;4.43;0.70;;;8.80;93.40;;;;;;4963775;28;20103;-84
2023/10/16 03:36:04;;;;;;;6.60;1.25;;;8.80;93.30;;;;;;4963567;28;20041;-85
2023/10/16 03:38:41;;;;;;;6.53;0.98;;;8.80;93.30;;;;;;4963124;28;20125;-85
2023/10/16 03:41:19;;;;;;;6.82;1.23;;;8.80;93.20;;;;;;4964569;28;20050;-85
2023/10/16 03:43:56;;;;;;;4.13;0.90;;;8.80;93.20;;;;;;4979140;28;20082;-85
2023/10/16 03:46:26;;;;;;;4.93;0.98;;;8.80;93.20;;;;;;4963958;28;20055;-86
2023/10/16 03:48:52;;;;;;;7.18;1.10;;;8.80;93.40;;;;;;4979511;28;20039;-84
2023/10/16 03:51:18;;;;;;;5.70;1.23;;;8.80;93.30;;;;;;4979636;28;20049;-85
2023/10/16 03:53:44;;;;;;;3.13;0.52;;;8.80;93.30;;;;;;4931207;28;20046;-85
2023/10/16 03:56:17;;;;;;;5.75;0.80;;;8.80;93.30;;;;;;4963288;28;20049;-84
2023/10/16 03:58:44;;;;;;;3.20;0.93;;;8.80;93.30;;;;;;4947093;28;20047;-84
2023/10/16 04:01:10;;;;;;;3.80;0.60;;;8.80;93.40;;;;;;4963339;28;20046;-84
2023/10/16 04:03:50;;;;;;;5.55;1.27;;;8.80;93.40;;;;;;4947060;28;20038;-84
2023/10/16 04:06:19;;;;;;;5.13;0.88;;;8.90;93.40;;;;;;4964540;28;20048;-83
2023/10/16 04:08:50;;;;;;;5.95;0.95;;;8.90;93.40;;;;;;4962521;28;20052;-84
2023/10/16 04:11:17;;;;;;;4.28;1.00;;;8.90;93.40;;;;;;4978953;28;20429;-84
2023/10/16 04:13:48;;;;;;;12.27;1.15;;;8.90;93.40;;;;;;4979087;28;20042;-84
2023/10/16 04:16:54;;;;;;;7.13;1.23;;;8.90;93.50;;;;;;4947402;28;20479;-84
2023/10/16 04:24:31;;;;;;;5.10;0.90;;;8.80;93.60;;;;;;4978704;28;20042;-84
2023/10/16 04:34:54;;;;;;;3.88;0.80;;;8.60;93.50;;;;;;4962882;28;20042;-84
2023/10/16 04:37:29;;;;;;;6.35;1.60;;;8.60;93.50;;;;;;4962670;28;20136;-84
2023/10/16 04:50:29;;;;;;;5.57;1.20;;;8.40;93.60;;;;;;4977933;28;20054;-84
2023/10/16 05:03:35;;;;;;;4.45;1.10;;;8.30;93.70;;;;;;4977921;28;20057;-84
2023/10/16 05:06:14;;;;;;;3.25;1.20;;;8.30;93.70;;;;;;4980173;28;20038;-84
2023/10/16 05:09:38;;;;;;;5.07;1.35;;;8.30;93.70;;;;;;4962631;28;20043;-84
2023/10/16 05:18:20;;;;;;;5.28;0.85;;;8.40;93.80;;;;;;4963744;28;19918;-84
2023/10/16 06:15:00;;;;;;;13.00;1.95;;;9.30;91.60;;;;;;4963143;28;20453;-82
2023/10/16 06:17:25;;;;;;;6.32;1.67;;;9.30;91.60;;;;;;4944748;28;20058;-83
2023/10/16 06:19:51;;;;;;;5.07;1.05;;;9.30;91.60;;;;;;4967197;28;20074;-84
2023/10/16 06:22:17;;;;;;;10.00;1.60;;;9.30;91.60;;;;;;4988158;28;20078;-82
2023/10/16 06:24:47;;;;;;;3.65;0.95;;;9.30;91.50;;;;;;4922510;28;20035;-84
2023/10/16 06:27:19;;;;;;;2.25;0.93;;;9.30;91.60;;;;;;4957140;28;20043;-84
2023/10/16 06:29:51;;;;;;;4.28;0.98;;;9.40;91.40;;;;;;4960773;28;20487;-84
2023/10/16 06:32:22;;;;;;;4.20;1.23;;;9.40;91.30;;;;;;4958378;28;20104;-85
2023/10/16 06:34:49;;;;;;;7.20;1.17;;;9.40;91.20;;;;;;4979141;28;20126;-83
2023/10/16 06:37:19;;;;;;;6.68;1.20;;;9.50;91.10;;;;;;4944198;28;20054;-83
2023/10/16 06:39:49;;;;;;;9.88;1.35;;;9.50;90.90;;;;;;4953797;28;20042;-85
2023/10/16 06:42:18;;;;;;;5.15;2.17;;;9.50;91.00;;;;;;4979945;28;20084;-83
2023/10/16 06:44:50;;;;;;;11.80;2.00;;;9.50;91.10;;;;;;4975865;28;20039;-86
2023/10/16 06:47:17;;;;;;;6.93;1.23;;;9.50;91.10;;;;;;4976115;28;20054;-84
2023/10/16 06:49:43;;;;;;;6.38;1.38;;;9.60;91.10;;;;;;4996716;28;20403;-84
2023/10/16 06:52:27;;;;;;;;;;;;;;;;;;;;;
2023/10/16 06:54:53;;;;;;;;;;;9.60;91.20;;;;;;4986298;28;20041;-86
2023/10/16 06:57:19;;;;;;;7.78;1.95;;;9.60;91.30;;;;;;5018072;28;19968;-83
2023/10/16 06:59:45;;;;;;;11.00;1.98;;;9.60;91.30;;;;;;4976533;28;20051;-84
2023/10/16 07:02:15;;;;;;;5.93;1.48;;;9.70;91.30;;;;;;4976749;28;20479;-84
2023/10/16 07:04:45;;;;;;;8.38;1.50;;;9.70;91.30;;;;;;4993407;28;20479;-83
2023/10/16 07:07:18;;;;;;;8.13;1.75;;;9.70;91.30;;;;;;4961222;28;20050;-84
2023/10/16 07:09:48;;;;;;;8.75;1.70;;;9.80;91.30;;;;;;4947034;28;20510;-85
2023/10/16 07:12:19;;;;;;;8.15;1.38;;;9.80;91.30;;;;;;4977205;28;20042;-85
2023/10/16 07:15:08;;;;;;;7.20;1.63;;;9.80;91.10;;;;;;4996001;28;20046;-82
2023/10/16 07:17:34;;;;;;;7.35;1.77;;;9.80;91.00;;;;;;4987512;28;20045;-83
2023/10/16 07:19:59;;;;;;;8.63;1.73;;;9.90;91.00;;;;;;4999275;28;20038;-84
2023/10/16 07:22:32;;;;;;;6.30;1.67;;;9.80;90.90;;;;;;4960131;28;20061;-83
2023/10/16 07:25:22;;;;;;;7.22;1.98;;;9.90;90.80;;;;;;4960849;28;20083;-85
2023/10/16 07:27:47;;;;;;;7.90;1.73;;;9.90;90.80;;;;;;4980893;28;20038;-84
2023/10/16 07:30:22;;;;;;;11.43;1.33;;;9.90;90.80;;;;;;4978392;28;20045;-84
2023/10/16 07:32:51;;;;;;;7.53;1.40;;;9.90;90.70;;;;;;4969527;28;20076;-85
2023/10/16 07:35:18;;;;;;;7.15;1.48;;;10.00;90.60;;;;;;5000948;28;20718;-84
2023/10/16 07:37:48;;;;;;;9.45;1.55;;;10.00;90.50;;;;;;4975996;28;20038;-84
2023/10/16 07:40:20;;;;;;;6.68;1.20;;;10.00;90.40;;;;;;4958867;28;20138;-84
2023/10/16 07:42:49;;;;;;;4.95;1.60;;;10.10;90.10;;;;;;4980577;28;20049;-85
2023/10/16 07:45:15;;;;;;;5.78;1.35;;;10.10;90.00;;;;;;4977618;28;20109;-83
2023/10/16 07:47:44;;;;;;;3.90;1.30;;;10.10;89.80;;;;;;4992418;28;20859;-83
2023/10/16 07:50:11;;;;;;;11.43;1.90;;;10.20;89.70;;;;;;4961735;28;20042;-84
2023/10/16 07:52:37;;;;;;;6.22;1.67;;;10.20;89.60;;;;;;4961314;28;20409;-83
2023/10/16 07:55:03;;;;;;;9.63;2.15;;;10.30;89.30;;;;;;4946490;28;20034;-82
2023/10/16 07:57:32;;;;;;;7.32;1.75;;;10.40;88.90;;;;;;4993439;28;20049;-83
2023/10/16 08:00:07;;;;;;;5.43;1.30;;;10.50;88.60;;;;;;4992646;28;20042;-82
2023/10/16 08:02:33;;;;;;;7.22;1.80;;;10.50;88.30;;;;;;5001639;28;20425;-83
2023/10/16 08:05:03;;;;;;;8.73;1.45;;;10.60;88.10;;;;;;4945497;28;20034;-85
2023/10/16 08:08:11;;;;;;;5.78;1.35;;;10.60;87.70;;;;;;4996580;28;20048;-83
2023/10/16 08:13:11;;;;;;;5.70;1.13;;;10.70;87.00;;;;;;4980172;28;20142;-83
2023/10/16 08:15:38;;;;;;;5.78;1.60;;;10.80;86.70;;;;;;4955275;28;20045;-83
2023/10/16 08:18:10;;;;;;;5.18;2.00;;;10.80;86.40;;;;;;5003553;28;20034;-83
2023/10/16 08:23:21;;;;;;;4.40;1.15;;;10.80;85.90;;;;;;4989129;28;20050;-84
2023/10/16 08:25:47;;;;;;;4.63;1.00;;;10.90;85.90;;;;;;5002763;28;20073;-83
2023/10/16 08:28:20;;;;;;;5.07;1.10;;;11.00;85.70;;;;;;4992436;28;20037;-83
2023/10/16 08:33:16;;;;;;;9.45;1.48;;;11.00;85.60;;;;;;4993417;28;20058;-83
2023/10/16 08:35:42;;;;;;;6.45;1.75;;;11.00;85.60;;;;;;5020671;28;20029;-83
2023/10/16 08:38:20;;;;;;;4.43;1.10;;;11.00;85.60;;;;;;5019611;28;20034;-83
2023/10/16 08:40:57;;;;;;;6.70;1.58;;;11.00;85.60;;;;;;4962651;28;20086;-83
2023/10/16 08:43:39;;;;;;;6.63;1.60;;;11.00;85.60;;;;;;4988709;28;20165;-84
2023/10/16 08:46:18;;;;;;;5.65;1.73;;;11.10;85.70;;;;;;4990815;28;20756;-84
2023/10/16 08:48:52;;;;;;;4.93;1.40;;;11.10;85.40;;;;;;4994769;28;20041;-84
2023/10/16 08:51:19;;;;;;;7.75;2.28;;;11.20;85.00;;;;;;4964861;28;20038;-83
2023/10/16 08:53:45;;;;;;;7.10;1.80;;;11.30;84.30;;;;;;4997522;28;20073;-84
2023/10/16 08:56:17;;;;;;;5.15;1.30;;;11.40;83.80;;;;;;4965529;28;20117;-84
2023/10/16 08:58:46;;;;;;;6.47;1.70;;;11.40;83.90;;;;;;4974949;28;20050;-84
2023/10/16 09:01:16;;;;;;;4.30;1.50;;;11.50;83.40;;;;;;5002737;28;20045;-85
2023/10/16 09:04:05;;;;;;;7.78;1.42;;;11.40;83.10;;;;;;4978447;28;20038;-85
2023/10/16 09:06:36;;;;;;;5.38;1.20;;;11.40;83.10;;;;;;4989235;28;20074;-85
2023/10/16 09:09:11;;;;;;;7.80;1.80;;;11.40;83.40;;;;;;5009507;28;20044;-84
2023/10/16 09:11:39;;;;;;;5.22;1.30;;;11.30;83.70;;;;;;4976749;28;20125;-84
2023/10/16 09:14:09;;;;;;;4.45;1.40;;;11.30;83.90;;;;;;4997805;28;20511;-84
2023/10/16 09:16:35;;;;;;;6.55;1.10;;;11.30;84.00;;;;;;4982382;28;20084;-84
2023/10/16 09:19:06;;;;;;;5.07;1.45;;;11.40;84.30;;;;;;4975254;28;20069;-85
2023/10/16 09:21:38;;;;;;;5.88;1.42;;;11.40;84.40;;;;;;4996303;28;20033;-85
2023/10/16 09:24:05;;;;;;;6.50;1.20;;;11.50;84.50;;;;;;4965046;28;20124;-84
2023/10/16 09:26:38;;;;;;;5.30;1.35;;;11.50;83.70;;;;;;4996558;28;20512;-84
2023/10/16 09:29:14;;;;;;;6.70;1.58;;;11.50;83.00;;;;;;4996403;28;20042;-84
2023/10/16 09:31:47;;;;;;;5.60;1.70;;;11.60;82.60;;;;;;4966586;28;20132;-85
2023/10/16 09:34:17;;;;;;;5.72;1.40;;;11.60;82.60;;;;;;4997439;28;20085;-84
2023/10/16 09:39:34;;;;;;;5.28;1.27;;;11.70;82.20;;;;;;4996985;28;20494;-84
2023/10/16 09:42:11;;;;;;;5.53;1.25;;;11.70;82.20;;;;;;4981139;28;20558;-84
2023/10/16 09:44:44;;;;;;;10.50;1.42;;;11.80;82.10;;;;;;4981489;28;20501;-83
2023/10/16 09:47:25;;;;;;;6.55;1.60;;;11.80;82.00;;;;;;4965147;28;20069;-84
2023/10/16 09:49:59;;;;;;;6.25;1.20;;;12.00;81.90;;;;;;4996739;28;20057;-82
2023/10/16 09:52:30;;;;;;;11.27;1.13;;;12.00;81.80;;;;;;4980636;28;20042;-83
2023/10/16 09:54:59;;;;;;;4.47;1.17;;;12.20;81.60;;;;;;4981046;28;20049;-84
2023/10/16 09:57:30;;;;;;;4.00;1.10;;;12.30;81.60;;;;;;4995764;28;20045;-81
2023/10/16 10:00:07;;;;;;;9.85;1.60;;;12.30;81.70;;;;;;4996022;28;20061;-83
2023/10/16 10:02:39;;;;;;;3.78;1.42;;;12.30;82.10;;;;;;4981478;28;20095;-83
2023/10/16 10:05:09;;;;;;;10.98;1.33;;;12.20;82.60;;;;;;4981084;28;20441;-83
2023/10/16 10:07:46;;;;;;;4.53;1.50;;;12.10;83.00;;;;;;4996081;28;20600;-83
2023/10/16 10:13:10;;;;;;;6.97;1.65;;;12.00;83.60;;;;;;4987043;28;20178;-83
2023/10/16 10:15:42;;;;;;;7.78;1.75;;;12.00;83.90;;;;;;4976615;28;20050;-84
2023/10/16 10:19:10;;;;;;;4.70;1.42;;;12.00;83.80;;;;;;4960604;28;20053;-85
2023/10/16 10:21:12;;;;;;;5.32;1.48;;;12.00;83.80;;;;;;4976006;28;20039;-83
2023/10/16 10:23:40;;;;;;;4.18;1.00;;;12.00;83.70;;;;;;4992985;28;20046;-83
2023/10/16 10:26:07;;;;;;;5.18;1.48;;;12.00;83.70;;;;;;4976551;28;20057;-83
2023/10/16 10:28:36;;;;;;;4.00;1.42;;;12.00;83.60;;;;;;4976330;28;20405;-84
2023/10/16 10:31:04;;;;;;;9.02;1.58;;;12.20;83.60;;;;;;4976946;28;20394;-84
2023/10/16 10:33:51;;;;;;;4.57;1.27;;;12.30;83.40;;;;;;4976740;28;20046;-83
2023/10/16 10:36:39;;;;;;;4.93;1.80;;;12.50;82.80;;;;;;4961229;28;20396;-83
2023/10/16 10:39:38;;;;;;;6.88;1.95;;;12.70;82.30;;;;;;4944606;28;20376;-83
2023/10/16 10:42:05;;;;;;;4.22;1.40;;;12.80;82.00;;;;;;4976260;28;20042;-84
2023/10/16 10:44:45;;;;;;;7.82;1.30;;;13.10;81.90;;;;;;4960163;28;20047;-84
2023/10/16 10:47:33;;;;;;;6.35;1.55;;;13.20;81.10;;;;;;4960443;28;20090;-83
2023/10/16 10:50:11;;;;;;;5.35;1.17;;;13.40;79.80;;;;;;4945272;28;20162;-83
2023/10/16 10:52:37;;;;;;;4.03;1.10;;;13.50;79.60;;;;;;4976364;28;20038;-83
2023/10/16 10:55:18;;;;;;;5.50;1.98;;;13.60;79.20;;;;;;4944152;28;20506;-84
2023/10/16 10:57:49;;;;;;;7.13;1.50;;;13.70;78.70;;;;;;4960160;28;20046;-83
2023/10/16 11:00:22;;;;;;;6.85;1.27;;;14.00;78.80;;;;;;4992412;28;20044;-84
2023/10/16 11:05:31;;;;;;;10.65;2.15;;;14.10;77.60;;;;;;4961411;28;20134;-83
2023/10/16 11:10:44;;;;;;;8.25;1.10;;;14.40;77.00;;;;;;4965442;28;20465;-85
2023/10/16 11:13:11;;;;;;;4.95;1.10;;;14.40;75.50;;;;;;4963892;28;20104;-84
2023/10/16 11:15:56;;;;;;;3.40;1.10;;;14.40;73.10;;;;;;4979680;28;20043;-83
2023/10/16 11:18:26;;;;;;;3.08;1.38;;;14.50;72.00;;;;;;4979592;28;20054;-84
2023/10/16 11:20:58;;;;;;;6.45;0.90;;;14.50;70.50;;;;;;4979551;28;20045;-84
2023/10/16 11:23:31;;;;;;;4.30;1.52;;;14.50;70.60;;;;;;4979911;28;20477;-83
2023/10/16 11:25:58;;;;;;;1.98;1.00;;;14.50;69.70;;;;;;4964584;28;20121;-84
2023/10/16 11:28:28;;;;;;;4.55;1.25;;;14.70;69.50;;;;;;4995922;28;20046;-84
2023/10/16 11:30:56;;;;;;;2.80;1.00;;;14.70;68.50;;;;;;4979773;28;20038;-85
2023/10/16 11:33:45;;;;;;;3.75;0.80;;;14.60;68.20;;;;;;4979383;28;20077;-84
2023/10/16 11:36:14;;;;;;;4.05;0.90;;;14.60;67.80;;;;;;4979374;28;20486;-85
2023/10/16 11:38:43;;;;;;;3.22;1.00;;;14.60;67.10;;;;;;4980873;28;20110;-84
2023/10/16 11:41:12;;;;;;;7.75;1.33;;;14.60;67.20;;;;;;4982096;28;20073;-85
2023/10/16 11:43:46;;;;;;;3.85;1.08;;;14.70;66.90;;;;;;5005333;28;20034;-83
2023/10/16 11:46:29;;;;;;;4.28;1.02;;;14.80;67.60;;;;;;5015913;28;20105;-81
2023/10/16 11:51:59;;;;;;;5.55;1.15;;;15.00;66.80;;;;;;4999675;28;20136;-84
2023/10/16 11:54:25;;;;;;;3.58;1.30;;;15.00;66.40;;;;;;4998588;28;20073;-83
2023/10/16 11:56:55;;;;;;;5.13;1.10;;;15.10;66.60;;;;;;4966653;28;20084;-83
2023/10/16 11:59:22;;;;;;;3.25;1.00;;;15.20;66.30;;;;;;4998251;28;20092;-83
2023/10/16 12:01:52;;;;;;;7.32;1.50;;;15.30;65.70;;;;;;4998379;28;20040;-84
2023/10/16 12:04:19;;;;;;;4.05;1.45;;;15.30;65.00;;;;;;4999004;28;20390;-84
2023/10/16 12:06:48;;;;;;;7.65;1.05;;;15.40;64.90;;;;;;4998654;28;20045;-84
2023/10/16 12:09:19;;;;;;;3.33;0.98;;;15.40;63.60;;;;;;4987650;28;20049;-84
2023/10/16 12:11:49;;;;;;;7.15;1.48;;;15.40;64.20;;;;;;4979316;28;20074;-84
2023/10/16 12:14:16;;;;;;;3.70;1.42;;;15.30;63.90;;;;;;4981936;28;20053;-83
2023/10/16 12:16:45;;;;;;;3.63;0.88;;;15.30;64.50;;;;;;4965320;28;20042;-84
2023/10/16 12:19:12;;;;;;;5.10;1.05;;;15.30;64.40;;;;;;4979045;28;20066;-83
2023/10/16 12:21:38;;;;;;;9.85;1.63;;;15.30;64.70;;;;;;4995271;28;20035;-84
2023/10/16 12:24:04;;;;;;;12.68;1.70;;;15.30;65.50;;;;;;4978886;28;20049;-84
2023/10/16 12:26:31;;;;;;;4.45;1.13;;;15.30;65.90;;;;;;4978621;28;20034;-84
2023/10/16 12:28:59;;;;;;;5.28;1.08;;;15.30;65.50;;;;;;4978654;28;20200;-84
2023/10/16 12:31:26;;;;;;;4.35;1.48;;;15.30;64.10;;;;;;4962721;28;20093;-84
2023/10/16 12:33:52;;;;;;;7.95;1.20;;;15.20;64.60;;;;;;4962739;28;20503;-82
2023/10/16 12:36:18;;;;;;;6.13;1.63;;;15.20;64.80;;;;;;4962360;28;20046;-84
2023/10/16 12:38:44;;;;;;;4.60;1.10;;;15.20;65.20;;;;;;4962325;28;20038;-84
2023/10/16 12:41:10;;;;;;;3.45;1.10;;;15.20;65.30;;;;;;4978372;28;20048;-82
2023/10/16 12:43:36;;;;;;;5.43;1.17;;;15.20;65.30;;;;;;4979096;28;20038;-83
2023/10/16 12:46:03;;;;;;;4.05;1.50;;;15.10;65.60;;;;;;4962632;28;20109;-82
2023/10/16 12:48:29;;;;;;;4.07;1.40;;;15.10;66.30;;;;;;4979532;28;20082;-83
2023/10/16 12:50:59;;;;;;;6.95;1.17;;;15.20;66.40;;;;;;4963318;28;20057;-82
2023/10/16 12:53:28;;;;;;;9.55;2.20;;;15.20;66.50;;;;;;4962540;28;20150;-84
2023/10/16 12:55:55;;;;;;;4.40;1.00;;;15.20;66.70;;;;;;4978387;28;20125;-84
2023/10/16 12:58:24;;;;;;;6.00;1.48;;;15.20;66.90;;;;;;4978098;28;20046;-84
2023/10/16 13:00:52;;;;;;;3.10;0.95;;;15.20;66.70;;;;;;4978143;28;20518;-84
2023/10/16 13:03:20;;;;;;;10.85;2.20;;;15.10;67.20;;;;;;4994427;28;20046;-85
2023/10/16 13:05:50;;;;;;;4.10;1.08;;;15.10;67.60;;;;;;4978022;28;20045;-84
2023/10/16 13:08:22;;;;;;;5.45;1.23;;;15.10;68.10;;;;;;4978417;28;20047;-84
2023/10/16 13:10:52;;;;;;;7.47;1.20;;;15.20;67.70;;;;;;4994167;28;20138;-84
2023/10/16 13:13:21;;;;;;;2.42;1.00;;;15.10;67.30;;;;;;4978060;28;20046;-86
2023/10/16 13:15:54;;;;;;;6.22;1.27;;;15.20;67.40;;;;;;4962292;28;20081;-85
2023/10/16 13:18:27;;;;;;;3.38;1.30;;;15.00;67.50;;;;;;4977735;28;20400;-84
2023/10/16 13:21:15;;;;;;;7.78;1.60;;;15.00;67.90;;;;;;4994547;28;20038;-84
2023/10/16 13:23:41;;;;;;;3.33;0.93;;;15.00;68.10;;;;;;4979582;28;20042;-85
2023/10/16 13:26:11;;;;;;;6.43;1.48;;;14.90;67.50;;;;;;4979957;28;20049;-83
2023/10/16 13:28:40;;;;;;;5.57;1.17;;;14.80;67.30;;;;;;4961875;28;20046;-83
2023/10/16 13:31:10;;;;;;;4.93;1.40;;;14.80;67.90;;;;;;4992621;28;20046;-83
2023/10/16 13:33:40;;;;;;;5.88;1.25;;;14.60;68.30;;;;;;4945464;28;20078;-83
2023/10/16 13:36:11;;;;;;;5.45;1.13;;;14.60;69.00;;;;;;4993621;28;20046;-83
2023/10/16 13:38:40;;;;;;;5.77;0.90;;;14.70;69.40;;;;;;4993429;28;20112;-84
2023/10/16 13:41:18;;;;;;;7.10;1.98;;;14.60;69.10;;;;;;4961031;28;20789;-84
2023/10/16 13:43:44;;;;;;;6.68;1.70;;;14.60;68.80;;;;;;4993505;28;20364;-83
2023/10/16 13:46:13;;;;;;;7.32;1.70;;;14.60;69.00;;;;;;4976954;28;20517;-83
2023/10/16 13:48:45;;;;;;;5.47;1.17;;;14.60;68.90;;;;;;4993034;28;20108;-83
2023/10/16 13:51:13;;;;;;;7.82;1.45;;;14.50;68.70;;;;;;4977911;28;20065;-83
2023/10/16 13:53:39;;;;;;;7.63;1.50;;;14.50;68.40;;;;;;4993079;28;20129;-83
2023/10/16 13:56:05;;;;;;;4.65;1.23;;;14.50;68.30;;;;;;4945060;28;20145;-85
2023/10/16 13:58:31;;;;;;;6.00;1.63;;;14.30;68.70;;;;;;4960580;28;20051;-82
2023/10/16 14:00:57;;;;;;;5.78;1.83;;;14.30;69.00;;;;;;4944654;28;20057;-83
2023/10/16 14:03:24;;;;;;;6.60;1.42;;;14.20;69.30;;;;;;4977251;28;20050;-85
2023/10/16 14:05:50;;;;;;;7.95;1.58;;;14.20;69.30;;;;;;4945426;28;20039;-82
2023/10/16 14:08:30;;;;;;;6.45;1.60;;;14.20;69.60;;;;;;4944551;28;20173;-85
2023/10/16 14:11:00;;;;;;;4.13;1.23;;;14.10;69.30;;;;;;4978077;28;20042;-83
2023/10/16 14:13:32;;;;;;;7.85;1.98;;;14.10;69.60;;;;;;4999100;28;20112;-82
2023/10/16 14:16:32;;;;;;;4.15;1.30;;;14.00;69.70;;;;;;4977524;28;20487;-83
2023/10/16 14:18:52;;;;;;;5.22;1.15;;;14.00;69.70;;;;;;4991781;28;20054;-83
2023/10/16 14:21:22;;;;;;;5.00;1.42;;;14.00;70.10;;;;;;4976991;28;20368;-82
2023/10/16 14:23:48;;;;;;;6.50;1.35;;;14.00;70.00;;;;;;4977923;28;20039;-83
2023/10/16 14:26:24;;;;;;;4.80;1.65;;;14.00;70.20;;;;;;4976633;28;20038;-83
2023/10/16 14:28:51;;;;;;;3.05;1.23;;;14.00;70.10;;;;;;4960547;28;20042;-83
2023/10/16 14:31:24;;;;;;;4.68;1.40;;;14.00;69.90;;;;;;4960529;28;20100;-83
2023/10/16 14:33:50;;;;;;;6.82;1.90;;;14.00;70.10;;;;;;4976623;28;20034;-83
2023/10/16 14:36:18;;;;;;;5.97;1.30;;;14.00;70.30;;;;;;4960449;28;20153;-83
2023/10/16 14:38:44;;;;;;;6.95;1.40;;;14.00;70.70;;;;;;4960374;28;20046;-84
2023/10/16 14:41:17;;;;;;;4.18;1.35;;;14.00;70.80;;;;;;4992838;28;20044;-85
2023/10/16 14:43:46;;;;;;;7.43;1.30;;;14.00;70.60;;;;;;4981189;28;20038;-84
2023/10/16 14:46:12;;;;;;;6.03;1.45;;;13.90;70.70;;;;;;4950878;28;20524;-83
2023/10/16 14:48:45;;;;;;;2.88;1.00;;;13.80;71.10;;;;;;4983529;28;20096;-84
2023/10/16 14:51:17;;;;;;;5.57;1.48;;;13.80;71.50;;;;;;4983209;28;20042;-84
2023/10/16 14:53:45;;;;;;;5.65;1.20;;;13.70;71.70;;;;;;4983290;28;20050;-83
2023/10/16 14:56:16;;;;;;;7.70;1.85;;;13.70;71.50;;;;;;4967769;28;20042;-84
2023/10/16 14:58:41;;;;;;;6.13;1.10;;;13.70;71.60;;;;;;4967230;28;20053;-84
2023/10/16 15:01:15;;;;;;;5.25;1.13;;;13.60;71.60;;;;;;4966762;28;20038;-83
2023/10/16 15:03:45;;;;;;;4.57;1.50;;;13.60;71.80;;;;;;4983980;28;20038;-84
2023/10/16 15:06:12;;;;;;;4.25;1.30;;;13.50;71.80;;;;;;4972675;28;20030;-84
2023/10/16 15:08:43;;;;;;;5.40;1.20;;;13.50;72.10;;;;;;4988097;28;20042;-83
2023/10/16 15:11:12;;;;;;;6.05;1.13;;;13.50;71.90;;;;;;4998553;28;20034;-82
2023/10/16 15:13:45;;;;;;;5.78;1.27;;;13.50;71.70;;;;;;4974190;28;20057;-83